»·PEaware :: N359SW 1L1-2O7

N359SW :: 1L1-2O7

FLIGHT INFORMATION

Flight Status: Arrived
Operator: Privately registered:
United States
More flights under this callsign
Pilot: Jamie M. (16133)
Aircraft: SOCATA TBM-900
(TBM9)
More flights by this aircraft type
Origin: 1L1 Lincoln Co
United States
Destination: 2O7 Independence
United States
More flights between these airports :: More routes between these airports
Route: ILC V244 TPH V135 TEZUM
File this flight plan on PilotEdge
Remarks:
Altitude:
(Current/Filed)
12,500ft
Speed:
(Current/Filed)
250kts
Departed: 27-Apr-20 10:31 AM
Arrived: 27-Apr-20 11:32 AM
Distance/Time
Traveled:
190nm/1:01
Distance/Time
To Go:
Arrived

Flight Plot

Page will automatically refresh every two minutes.


Map Options




Map Legend


Flown Route
Filed Route
Departure Airport
Arrival Airport
Navaid (VOR, NDB)
Fix

Horizontal Profiles

Position Reports

Time Latitude Longitude Heading Altitude Ground
Speed
27-Apr-20 09:54 37.784636 -114.423140 91 4814ft 0kts
27-Apr-20 09:55 37.784636 -114.423140 91 4814ft 0kts
27-Apr-20 09:56 37.784636 -114.423140 91 4814ft 0kts
27-Apr-20 09:57 37.784636 -114.423140 91 4814ft 0kts
27-Apr-20 09:58 37.784636 -114.423140 91 4814ft 0kts
27-Apr-20 09:59 37.784636 -114.423140 91 4814ft 0kts
27-Apr-20 10:00 37.784636 -114.423140 91 4814ft 0kts
27-Apr-20 10:01 37.784636 -114.423140 91 4814ft 0kts
27-Apr-20 10:02 37.784636 -114.423140 91 4814ft 0kts
27-Apr-20 10:03 37.784636 -114.423140 91 4814ft 0kts
27-Apr-20 10:04 37.784636 -114.423140 91 4814ft 0kts
27-Apr-20 10:05 37.784636 -114.423140 91 4814ft 0kts
27-Apr-20 10:06 37.784636 -114.423140 91 4814ft 0kts
27-Apr-20 10:07 37.784636 -114.423140 91 4814ft 0kts
27-Apr-20 10:08 37.784636 -114.423140 91 4814ft 0kts
27-Apr-20 10:09 37.784636 -114.423140 91 4814ft 0kts
27-Apr-20 10:10 37.784636 -114.423140 91 4814ft 0kts
27-Apr-20 10:11 37.784636 -114.423140 91 4814ft 0kts
27-Apr-20 10:12 37.784636 -114.423140 91 4814ft 0kts
27-Apr-20 10:13 37.784636 -114.423140 91 4814ft 0kts
27-Apr-20 10:14 37.784636 -114.423140 91 4814ft 0kts
27-Apr-20 10:15 37.784636 -114.423140 91 4814ft 0kts
27-Apr-20 10:16 37.784636 -114.423140 91 4814ft 0kts
27-Apr-20 10:17 37.784636 -114.423140 91 4814ft 0kts
27-Apr-20 10:18 37.784636 -114.423140 91 4814ft 0kts
27-Apr-20 10:19 37.784636 -114.423140 91 4814ft 0kts
27-Apr-20 10:20 37.784636 -114.423140 91 4814ft 0kts
27-Apr-20 10:21 37.784636 -114.423140 91 4814ft 0kts
27-Apr-20 10:22 37.784636 -114.423140 91 4814ft 0kts
27-Apr-20 10:23 37.784636 -114.423140 91 4814ft 0kts
27-Apr-20 10:24 37.784636 -114.423140 91 4814ft 0kts
27-Apr-20 10:25 37.784625 -114.423099 122 4814ft 1kts
27-Apr-20 10:26 37.783299 -114.422179 183 4807ft 9kts
27-Apr-20 10:27 37.781276 -114.421563 90 4799ft 0kts
27-Apr-20 10:28 37.781276 -114.421563 90 4799ft 0kts
27-Apr-20 10:29 37.781474 -114.421102 1 4800ft 0kts
27-Apr-20 10:30 37.803388 -114.418124 13 5546ft 124kts
27-Apr-20 10:31 37.840480 -114.402626 11 7215ft 154kts
27-Apr-20 10:32 37.890339 -114.387943 11 8530ft 185kts
27-Apr-20 10:33 37.941700 -114.382277 356 10415ft 188kts
27-Apr-20 10:34 37.995062 -114.386111 352 12277ft 194kts
27-Apr-20 10:35 38.058481 -114.391746 354 12585ft 255kts
27-Apr-20 10:36 38.134465 -114.394296 357 12593ft 276kts
27-Apr-20 10:37 38.213461 -114.395153 357 12596ft 280kts
27-Apr-20 10:38 38.243548 -114.467867 264 12606ft 264kts
27-Apr-20 10:39 38.239911 -114.562748 266 12599ft 265kts
27-Apr-20 10:40 38.236385 -114.658167 265 12600ft 265kts
27-Apr-20 10:41 38.230148 -114.752805 260 12601ft 265kts
27-Apr-20 10:42 38.219978 -114.847051 260 12600ft 265kts
27-Apr-20 10:43 38.209802 -114.941732 260 12600ft 265kts
27-Apr-20 10:44 38.204475 -115.036564 264 12600ft 265kts
27-Apr-20 10:45 38.198232 -115.131148 264 12600ft 264kts
27-Apr-20 10:46 38.191929 -115.225485 264 12600ft 264kts
27-Apr-20 10:47 38.185650 -115.319884 265 12599ft 264kts
27-Apr-20 10:48 38.179448 -115.414201 265 12599ft 264kts
27-Apr-20 10:49 38.173299 -115.508738 265 12600ft 264kts
27-Apr-20 10:50 38.167229 -115.603052 265 12601ft 264kts
27-Apr-20 10:51 38.161233 -115.697214 264 12605ft 264kts
27-Apr-20 10:52 38.155288 -115.791692 265 12607ft 264kts
27-Apr-20 10:53 38.149400 -115.886441 265 12609ft 264kts
27-Apr-20 10:54 38.143515 -115.980945 265 12609ft 264kts
27-Apr-20 10:55 38.136535 -116.075271 263 12609ft 264kts
27-Apr-20 10:56 38.118914 -116.167240 256 12609ft 264kts
27-Apr-20 10:57 38.105024 -116.260499 261 12609ft 264kts
27-Apr-20 10:58 38.094759 -116.354030 262 12608ft 264kts
27-Apr-20 10:59 38.085457 -116.447897 263 12608ft 264kts
27-Apr-20 11:00 38.076384 -116.542111 263 12608ft 264kts
27-Apr-20 11:01 38.067438 -116.636053 263 12608ft 264kts
27-Apr-20 11:02 38.058157 -116.730024 262 12610ft 265kts
27-Apr-20 11:03 38.048826 -116.824387 262 12610ft 265kts
27-Apr-20 11:04 38.039586 -116.918845 262 12606ft 265kts
27-Apr-20 11:05 38.031915 -117.013758 265 12518ft 265kts
27-Apr-20 11:06 37.987294 -117.084169 218 12519ft 270kts
27-Apr-20 11:07 37.925484 -117.140657 218 12518ft 271kts
27-Apr-20 11:08 37.863026 -117.197585 218 12517ft 271kts
27-Apr-20 11:09 37.802858 -117.258505 221 12517ft 271kts
27-Apr-20 11:10 37.743417 -117.320619 222 12517ft 271kts
27-Apr-20 11:11 37.686658 -117.385771 225 12517ft 270kts
27-Apr-20 11:12 37.630210 -117.451885 225 12516ft 270kts
27-Apr-20 11:13 37.573618 -117.518135 225 12510ft 270kts
27-Apr-20 11:14 37.516908 -117.584509 225 12482ft 270kts
27-Apr-20 11:15 37.461367 -117.651259 228 12446ft 270kts
27-Apr-20 11:16 37.408872 -117.719571 228 12436ft 270kts
27-Apr-20 11:17 37.356263 -117.788002 228 12436ft 270kts
27-Apr-20 11:18 37.303717 -117.856317 228 12436ft 270kts
27-Apr-20 11:19 37.251376 -117.924334 228 12436ft 270kts
27-Apr-20 11:20 37.200271 -117.993016 244 12408ft 267kts
27-Apr-20 11:21 37.166766 -118.075734 242 12436ft 266kts
27-Apr-20 11:22 37.127630 -118.155278 230 11984ft 270kts
27-Apr-20 11:23 37.063066 -118.205312 191 10837ft 285kts
27-Apr-20 11:24 36.982233 -118.204392 171 9427ft 286kts
27-Apr-20 11:25 36.913175 -118.181763 152 7813ft 234kts
27-Apr-20 11:26 36.859478 -118.146612 152 6125ft 196kts
27-Apr-20 11:28 36.822155 -118.123535 165 4933ft 105kts
27-Apr-20 11:29 36.795032 -118.138163 236 4976ft 113kts
27-Apr-20 11:30 36.783146 -118.174583 254 5055ft 107kts
27-Apr-20 11:31 36.800804 -118.196835 337 4242ft 100kts
27-Apr-20 11:32 36.819765 -118.206703 339 3901ft 18kts
27-Apr-20 11:33 36.818221 -118.205934 157 3901ft 11kts
27-Apr-20 11:34 36.813650 -118.203555 157 3901ft 22kts
27-Apr-20 11:35 36.810141 -118.202757 236 3901ft 0kts
27-Apr-20 11:36 36.810141 -118.202757 236 3901ft 0kts
27-Apr-20 11:37 36.810141 -118.202757 236 3901ft 0kts
27-Apr-20 11:38 36.810141 -118.202757 236 3901ft 0kts
27-Apr-20 11:39 36.810141 -118.202757 236 3901ft 0kts
27-Apr-20 11:40 36.810141 -118.202757 236 3901ft 0kts
27-Apr-20 11:41 36.810141 -118.202757 236 3901ft 0kts
27-Apr-20 11:42 36.810141 -118.202757 236 3901ft 0kts
27-Apr-20 11:42 36.810141 -118.202757 236 3901ft 0kts
27-Apr-20 11:44 36.810141 -118.202757 236 3901ft 0kts
27-Apr-20 11:45 36.810141 -118.202757 236 3901ft 0kts
27-Apr-20 11:46 36.810141 -118.202757 236 3901ft 0kts

Navigation Log

Ident Type
Flight plan parsing failed, navigation log unavailable